Time;durP1;ratioP1;P1;durP2;ratioP2;P2;SDS_P1;SDS_P2;PMS_P1;PMS_P2;Temp;Humidity;BMP_temperature;BMP_pressure;BME280_temperature;BME280_humidity;BME280_pressure;Samples;Min_cycle;Max_cycle;Signal;HPM_P1;HPM_P2
2022/03/14 00:02:18;;;;;;;4.17;2.63;;;5.80;1.00;;;;;;5051440;28;20263;-80
2022/03/14 00:04:47;;;;;;;2.67;2.43;;;5.90;1.00;;;;;;5051071;28;20206;-80
2022/03/14 00:07:15;;;;;;;3.70;2.20;;;5.90;1.00;;;;;;5051092;28;20202;-82
2022/03/14 00:09:42;;;;;;;4.00;2.20;;;5.90;1.00;;;;;;5050839;28;20285;-82
2022/03/14 00:12:10;;;;;;;5.10;2.93;;;5.90;1.00;;;;;;5051294;28;20609;-83
2022/03/14 00:14:37;;;;;;;3.13;2.17;;;5.90;1.00;;;;;;5050245;28;20198;-82
2022/03/14 00:17:11;;;;;;;3.37;1.90;;;5.90;1.00;;;;;;5051018;28;20238;-80
2022/03/14 00:19:40;;;;;;;2.70;2.30;;;6.00;1.00;;;;;;5050288;28;20572;-80
2022/03/14 00:22:07;;;;;;;3.03;2.13;;;6.00;1.00;;;;;;5050976;28;20206;-82
2022/03/14 00:24:36;;;;;;;2.47;2.03;;;6.00;1.00;;;;;;5050539;28;20214;-82
2022/03/14 00:27:03;;;;;;;5.50;2.10;;;5.90;1.00;;;;;;5050565;28;20207;-83
2022/03/14 00:29:30;;;;;;;2.13;2.00;;;5.90;1.00;;;;;;5050429;28;20248;-83
2022/03/14 00:31:58;;;;;;;3.13;1.73;;;5.90;1.00;;;;;;5050682;28;20261;-81
2022/03/14 00:34:25;;;;;;;1.73;1.27;;;6.00;1.00;;;;;;5050109;28;20685;-83
2022/03/14 00:36:52;;;;;;;1.60;1.20;;;6.00;1.00;;;;;;5050551;28;20206;-80
2022/03/14 00:39:19;;;;;;;2.27;1.23;;;6.20;99.90;;;;;;5052160;28;20222;-78
2022/03/14 00:41:47;;;;;;;0.90;0.70;;;6.10;99.90;;;;;;5054745;28;20666;-87
2022/03/14 00:44:16;;;;;;;1.43;1.13;;;6.20;99.90;;;;;;5054414;28;20215;-83
2022/03/14 00:46:43;;;;;;;2.97;0.90;;;6.10;99.90;;;;;;5054287;28;20198;-82
2022/03/14 00:49:11;;;;;;;1.10;0.80;;;6.10;99.90;;;;;;5054108;28;20272;-82
2022/03/14 00:51:38;;;;;;;1.43;1.13;;;6.20;99.90;;;;;;5053746;28;21264;-80
2022/03/14 00:54:06;;;;;;;1.00;0.77;;;6.10;99.90;;;;;;5054276;28;20245;-83
2022/03/14 00:56:33;;;;;;;1.60;1.00;;;6.10;99.90;;;;;;5053689;28;20603;-83
2022/03/14 00:59:01;;;;;;;1.20;1.10;;;6.20;99.90;;;;;;5053656;28;20239;-88
2022/03/14 01:01:28;;;;;;;1.33;1.20;;;6.20;99.90;;;;;;5053544;28;20199;-82
2022/03/14 01:03:56;;;;;;;1.07;0.60;;;6.40;99.90;;;;;;5053668;28;20198;-79
2022/03/14 01:06:23;;;;;;;2.17;1.30;;;6.50;99.90;;;;;;5053501;28;20203;-78
2022/03/14 01:08:50;;;;;;;1.10;0.93;;;6.40;99.90;;;;;;5053675;28;20256;-84
2022/03/14 01:11:17;;;;;;;1.40;0.60;;;6.40;99.90;;;;;;5053985;28;20203;-82
2022/03/14 01:13:45;;;;;;;2.00;0.87;;;6.40;99.90;;;;;;5053401;28;20207;-78
2022/03/14 01:16:13;;;;;;;1.40;0.70;;;6.50;99.90;;;;;;5053637;28;20207;-84
2022/03/14 01:18:40;;;;;;;1.53;0.83;;;6.60;99.90;;;;;;5053814;28;20234;-83
2022/03/14 01:21:07;;;;;;;2.57;0.93;;;6.60;99.90;;;;;;5054142;28;20202;-84
2022/03/14 01:23:34;;;;;;;0.77;0.77;;;6.60;99.90;;;;;;5053398;28;20203;-82
2022/03/14 01:26:01;;;;;;;1.50;0.60;;;6.70;99.90;;;;;;5054070;28;20280;-84
2022/03/14 01:28:28;;;;;;;1.57;1.00;;;6.70;99.90;;;;;;5053039;28;20207;-86
2022/03/14 01:30:58;;;;;;;1.30;1.00;;;6.70;99.90;;;;;;5053980;28;20218;-83
2022/03/14 01:33:26;;;;;;;5.70;1.43;;;6.70;99.90;;;;;;5053283;28;20298;-93
2022/03/14 01:35:53;;;;;;;4.50;0.70;;;6.60;99.90;;;;;;5053585;28;20206;-72
2022/03/14 01:38:20;;;;;;;1.70;1.00;;;6.60;99.90;;;;;;5052511;28;20280;-74
2022/03/14 01:40:47;;;;;;;6.47;1.77;;;6.60;99.90;;;;;;5053881;28;20206;-86
2022/03/14 01:43:15;;;;;;;3.17;1.63;;;6.60;1.00;;;;;;5053684;28;20260;-84
2022/03/14 01:45:46;;;;;;;3.07;1.20;;;6.50;1.00;;;;;;5053468;28;20199;-87
2022/03/14 01:48:13;;;;;;;4.17;1.77;;;6.50;1.00;;;;;;5053013;28;20257;-85
2022/03/14 01:50:41;;;;;;;2.17;1.30;;;6.60;99.90;;;;;;5051702;28;20203;-83
2022/03/14 01:53:10;;;;;;;3.07;1.30;;;6.50;1.00;;;;;;5053192;28;20265;-83
2022/03/14 01:55:36;;;;;;;3.87;2.00;;;6.50;1.00;;;;;;5052820;28;20210;-84
2022/03/14 01:58:04;;;;;;;3.23;1.20;;;6.50;1.00;;;;;;5053452;28;20288;-85
2022/03/14 02:00:32;;;;;;;2.30;1.63;;;6.60;1.00;;;;;;5052708;28;20570;-86
2022/03/14 02:02:58;;;;;;;5.10;1.80;;;6.50;1.00;;;;;;5052857;28;20646;-83
2022/03/14 02:05:28;;;;;;;1.40;1.20;;;6.40;1.00;;;;;;5052691;28;20207;-84
2022/03/14 02:07:58;;;;;;;3.57;1.93;;;6.40;1.00;;;;;;5053241;28;20293;-88
2022/03/14 02:10:25;;;;;;;3.20;1.80;;;6.50;1.00;;;;;;5052326;28;20254;-85
2022/03/14 02:12:52;;;;;;;3.53;1.40;;;6.60;1.00;;;;;;5053582;28;20203;-84
2022/03/14 02:15:20;;;;;;;3.80;2.63;;;6.60;1.00;;;;;;5052868;28;20619;-88
2022/03/14 02:17:47;;;;;;;4.60;1.73;;;6.50;1.00;;;;;;5053192;28;20344;-87
2022/03/14 02:20:16;;;;;;;6.70;2.10;;;6.50;1.00;;;;;;5053029;28;20261;-84
2022/03/14 02:22:43;;;;;;;3.60;2.10;;;6.50;1.00;;;;;;5052112;28;20206;-84
2022/03/14 02:25:10;;;;;;;8.57;3.07;;;6.40;1.00;;;;;;5052513;28;20212;-82
2022/03/14 02:27:38;;;;;;;3.70;2.40;;;6.40;1.00;;;;;;5052588;28;20756;-83
2022/03/14 02:30:06;;;;;;;4.13;2.10;;;6.50;1.00;;;;;;5052744;28;20202;-88
2022/03/14 02:32:33;;;;;;;5.07;2.07;;;6.40;1.00;;;;;;5052141;28;20203;-85
2022/03/14 02:35:00;;;;;;;6.17;3.17;;;6.30;1.00;;;;;;5052774;28;20264;-86
2022/03/14 02:37:30;;;;;;;2.73;2.17;;;6.30;1.00;;;;;;5051462;28;20218;-87
2022/03/14 02:39:57;;;;;;;3.13;2.80;;;6.30;1.00;;;;;;5052181;28;20207;-88
2022/03/14 02:42:24;;;;;;;7.10;2.13;;;6.30;1.00;;;;;;5052287;28;20211;-86
2022/03/14 02:44:51;;;;;;;4.43;1.97;;;6.40;1.00;;;;;;5052529;28;20281;-83
2022/03/14 02:47:19;;;;;;;6.83;3.00;;;6.40;1.00;;;;;;5052389;28;20207;-74
2022/03/14 02:49:46;;;;;;;2.87;2.67;;;6.50;1.00;;;;;;5052497;28;20226;-87
2022/03/14 02:52:13;;;;;;;3.73;2.73;;;6.60;1.00;;;;;;5052700;28;20253;-86
2022/03/14 02:54:42;;;;;;;3.13;2.60;;;6.70;1.00;;;;;;5051569;28;20264;-89
2022/03/14 02:57:10;;;;;;;7.10;3.13;;;6.70;1.00;;;;;;5052152;28;20209;-89
2022/03/14 02:59:37;;;;;;;6.30;3.37;;;6.90;1.00;;;;;;5052117;28;20238;-86
2022/03/14 03:02:05;;;;;;;8.43;4.03;;;7.10;1.00;;;;;;5051885;28;20199;-86
2022/03/14 03:04:32;;;;;;;9.73;3.23;;;7.20;1.00;;;;;;5051597;28;20260;-87
2022/03/14 03:06:59;;;;;;;6.20;3.43;;;7.10;1.00;;;;;;5052381;28;20261;-84
2022/03/14 03:09:27;;;;;;;8.37;3.43;;;7.20;1.00;;;;;;5051614;28;20246;-87
2022/03/14 03:11:56;;;;;;;3.73;2.70;;;7.20;1.00;;;;;;5052394;28;20209;-89
2022/03/14 03:14:23;;;;;;;8.63;3.00;;;7.30;1.00;;;;;;5051372;28;20210;-83
2022/03/14 03:16:50;;;;;;;7.27;3.43;;;7.30;1.00;;;;;;5052035;28;20202;-91
2022/03/14 03:19:17;;;;;;;5.90;3.20;;;7.40;1.00;;;;;;5052116;28;20288;-87
2022/03/14 03:21:44;;;;;;;11.17;3.00;;;7.30;1.00;;;;;;5051571;28;20273;-85
2022/03/14 03:24:12;;;;;;;5.30;3.40;;;7.20;1.00;;;;;;5051573;28;20257;-85
2022/03/14 03:26:39;;;;;;;7.47;4.57;;;7.20;1.00;;;;;;5051448;28;20647;-88
2022/03/14 03:29:10;;;;;;;5.00;3.40;;;7.30;1.00;;;;;;5052023;28;20210;-87
2022/03/14 03:31:37;;;;;;;10.37;3.50;;;7.30;1.00;;;;;;5051586;28;20225;-85
2022/03/14 03:34:05;;;;;;;9.90;5.40;;;7.30;1.00;;;;;;5051780;28;20569;-87
2022/03/14 03:36:32;;;;;;;5.57;4.50;;;7.30;1.00;;;;;;5051497;28;20268;-87
2022/03/14 03:38:59;;;;;;;8.60;4.10;;;7.30;1.00;;;;;;5051141;28;20596;-83
2022/03/14 03:41:26;;;;;;;7.43;5.20;;;7.30;1.00;;;;;;5051423;28;20298;-84
2022/03/14 03:43:53;;;;;;;10.50;9.40;;;7.30;1.00;;;;;;5051892;28;20207;-88
2022/03/14 03:46:22;;;;;;;16.03;8.90;;;7.40;1.00;;;;;;5052367;28;20203;-79
2022/03/14 03:48:49;;;;;;;8.37;5.03;;;7.40;1.00;;;;;;5058413;28;20209;-82
2022/03/14 03:51:16;;;;;;;12.33;8.00;;;7.40;1.00;;;;;;5052369;28;20249;-86
2022/03/14 03:53:43;;;;;;;19.07;14.37;;;7.40;1.00;;;;;;5051420;28;20289;-86
2022/03/14 03:56:10;;;;;;;16.97;13.10;;;7.40;1.00;;;;;;5051374;28;20260;-85
2022/03/14 03:58:37;;;;;;;35.17;18.63;;;7.40;1.00;;;;;;5050949;28;20231;-85
2022/03/14 04:01:04;;;;;;;15.80;10.23;;;7.40;1.00;;;;;;5051861;28;20257;-85
2022/03/14 04:03:34;;;;;;;10.20;6.47;;;7.50;1.00;;;;;;5050987;28;20312;-83
2022/03/14 04:06:02;;;;;;;13.03;5.63;;;7.40;1.00;;;;;;5051204;28;20203;-86
2022/03/14 04:08:31;;;;;;;5.33;4.07;;;7.40;1.00;;;;;;5051193;28;20340;-87
2022/03/14 04:10:59;;;;;;;10.03;5.27;;;7.50;1.00;;;;;;5051112;28;20209;-85
2022/03/14 04:13:29;;;;;;;7.10;4.07;;;7.50;1.00;;;;;;5050863;28;20728;-88
2022/03/14 04:15:59;;;;;;;4.93;3.63;;;7.50;1.00;;;;;;5055352;28;20210;-82
2022/03/14 04:18:26;;;;;;;5.73;3.57;;;7.40;1.00;;;;;;5054881;28;20227;-81
2022/03/14 04:20:55;;;;;;;10.10;5.17;;;7.40;1.00;;;;;;5055092;28;20203;-85
2022/03/14 04:23:23;;;;;;;5.70;3.50;;;7.30;1.00;;;;;;5054783;28;20667;-86
2022/03/14 04:25:50;;;;;;;6.70;3.47;;;7.30;1.00;;;;;;5055326;28;20221;-87
2022/03/14 04:28:18;;;;;;;7.00;3.03;;;7.20;1.00;;;;;;5055342;28;20207;-86
2022/03/14 04:30:45;;;;;;;8.20;3.40;;;7.20;1.00;;;;;;5055363;28;20210;-83
2022/03/14 04:33:12;;;;;;;5.90;3.43;;;7.20;1.00;;;;;;5054689;28;20667;-86
2022/03/14 04:35:39;;;;;;;7.97;3.83;;;7.20;1.00;;;;;;5054218;28;20206;-83
2022/03/14 04:38:08;;;;;;;6.03;3.40;;;7.20;1.00;;;;;;5054511;28;20203;-81
2022/03/14 04:40:35;;;;;;;6.30;3.50;;;7.20;1.00;;;;;;5054946;28;20211;-86
2022/03/14 04:43:05;;;;;;;7.57;3.67;;;7.20;1.00;;;;;;5054845;28;20294;-84
2022/03/14 04:45:32;;;;;;;7.97;3.70;;;7.30;1.00;;;;;;5054129;28;20203;-85
2022/03/14 04:48:00;;;;;;;6.83;3.23;;;7.20;1.00;;;;;;5054641;28;20324;-85
2022/03/14 04:50:27;;;;;;;4.73;3.33;;;7.20;1.00;;;;;;5053672;28;20203;-86
2022/03/14 04:52:54;;;;;;;6.63;3.60;;;7.10;99.90;;;;;;5054685;28;20560;-84
2022/03/14 04:55:23;;;;;;;2.90;2.33;;;7.00;99.90;;;;;;5053962;28;20746;-84
2022/03/14 04:57:50;;;;;;;4.90;3.20;;;7.00;99.90;;;;;;5054789;28;20213;-87
2022/03/14 05:00:17;;;;;;;5.30;2.43;;;6.80;99.90;;;;;;5054123;28;20611;-85
2022/03/14 05:02:44;;;;;;;5.17;2.60;;;6.80;99.90;;;;;;5054213;28;20279;-85
2022/03/14 05:05:12;;;;;;;3.00;2.17;;;6.60;99.90;;;;;;5054055;28;20256;-85
2022/03/14 05:07:39;;;;;;;3.87;1.87;;;6.50;99.90;;;;;;5053356;28;20622;-74
2022/03/14 05:10:07;;;;;;;7.47;2.97;;;6.40;99.90;;;;;;5054100;28;20202;-82
2022/03/14 05:12:36;;;;;;;3.90;2.30;;;6.30;99.90;;;;;;5053617;28;20209;-85
2022/03/14 05:15:03;;;;;;;3.67;2.10;;;6.30;99.90;;;;;;5053865;28;20214;-86
2022/03/14 05:17:30;;;;;;;3.83;2.50;;;6.40;99.90;;;;;;5053329;28;20253;-86
2022/03/14 05:19:57;;;;;;;4.10;2.57;;;6.40;99.90;;;;;;5053557;28;20230;-86
2022/03/14 05:22:25;;;;;;;6.23;2.80;;;6.40;99.90;;;;;;5053527;28;20619;-87
2022/03/14 05:24:51;;;;;;;3.33;2.23;;;6.30;99.90;;;;;;5053655;28;20199;-87
2022/03/14 05:27:19;;;;;;;4.07;2.80;;;6.40;99.90;;;;;;5053798;28;20207;-82
2022/03/14 05:29:47;;;;;;;2.77;2.33;;;6.30;99.90;;;;;;5053858;28;20210;-81
2022/03/14 05:32:14;;;;;;;3.87;2.23;;;6.30;99.90;;;;;;5053705;28;20202;-86
2022/03/14 05:34:41;;;;;;;5.97;1.70;;;6.30;99.90;;;;;;5053088;28;20207;-87
2022/03/14 05:37:08;;;;;;;3.67;2.33;;;6.20;99.90;;;;;;5053663;28;20674;-88
2022/03/14 05:39:35;;;;;;;4.97;2.27;;;6.20;99.90;;;;;;5053189;28;20234;-84
2022/03/14 05:42:02;;;;;;;2.87;2.27;;;6.20;99.90;;;;;;5053362;28;20572;-87
2022/03/14 05:44:29;;;;;;;3.20;2.47;;;6.10;99.90;;;;;;5053099;28;20732;-86
2022/03/14 05:46:57;;;;;;;3.37;3.00;;;6.00;99.90;;;;;;5053237;28;20257;-85
2022/03/14 05:49:24;;;;;;;6.63;2.70;;;6.10;99.90;;;;;;5052926;28;20210;-85
2022/03/14 05:51:52;;;;;;;6.10;2.50;;;6.10;99.90;;;;;;5053095;28;20203;-84
2022/03/14 05:54:19;;;;;;;7.50;2.80;;;6.20;99.90;;;;;;5053129;28;20202;-81
2022/03/14 05:56:46;;;;;;;5.90;2.70;;;6.10;99.90;;;;;;5053184;28;20214;-85
2022/03/14 05:59:13;;;;;;;3.70;2.50;;;6.10;99.90;;;;;;5052892;28;20642;-87
2022/03/14 06:01:41;;;;;;;3.47;3.17;;;6.10;99.90;;;;;;5052830;28;20210;-87
2022/03/14 06:04:10;;;;;;;3.20;2.37;;;6.10;99.90;;;;;;5052177;28;20690;-74
2022/03/14 06:06:38;;;;;;;4.40;3.00;;;6.00;99.90;;;;;;5052148;28;20246;-76
2022/03/14 06:09:04;;;;;;;5.40;3.37;;;6.00;99.90;;;;;;5052338;28;20206;-78
2022/03/14 06:11:31;;;;;;;4.17;2.50;;;6.00;99.90;;;;;;5052050;28;20205;-76
2022/03/14 06:13:58;;;;;;;6.43;2.77;;;6.00;99.90;;;;;;5051999;28;20207;-77
2022/03/14 06:16:26;;;;;;;4.77;2.40;;;6.20;99.90;;;;;;5051720;28;20211;-77
2022/03/14 06:18:53;;;;;;;4.10;2.63;;;6.20;99.90;;;;;;5052358;28;20227;-82
2022/03/14 06:21:21;;;;;;;5.77;3.17;;;6.30;99.90;;;;;;5052464;28;20203;-75
2022/03/14 06:23:48;;;;;;;6.27;3.53;;;6.30;99.90;;;;;;5052449;28;20203;-75
2022/03/14 06:26:15;;;;;;;7.17;3.70;;;6.30;99.90;;;;;;5052477;28;20256;-83
2022/03/14 06:28:42;;;;;;;4.47;3.30;;;6.30;99.90;;;;;;5051976;28;20199;-83
2022/03/14 06:31:10;;;;;;;10.23;3.97;;;6.50;99.90;;;;;;5052610;28;20253;-82
2022/03/14 06:33:38;;;;;;;4.70;3.10;;;6.60;99.90;;;;;;5052011;28;21058;-84
2022/03/14 06:36:05;;;;;;;4.07;3.13;;;6.70;99.90;;;;;;5051938;28;20277;-86
2022/03/14 06:38:35;;;;;;;4.80;2.40;;;6.60;99.90;;;;;;5051332;28;20245;-81
2022/03/14 06:41:02;;;;;;;4.67;3.63;;;6.50;99.90;;;;;;5051875;28;20246;-80
2022/03/14 06:43:32;;;;;;;4.27;3.70;;;6.50;99.90;;;;;;5052184;28;20738;-85
2022/03/14 06:45:59;;;;;;;6.93;5.17;;;6.60;99.90;;;;;;5052194;28;20199;-85
2022/03/14 06:48:26;;;;;;;6.33;3.77;;;6.50;99.90;;;;;;5051449;28;20202;-76
2022/03/14 06:50:52;;;;;;;5.47;2.97;;;6.40;99.90;;;;;;5051602;28;20245;-80
2022/03/14 06:53:19;;;;;;;5.20;4.50;;;6.40;99.90;;;;;;5051465;28;20622;-73
2022/03/14 06:55:48;;;;;;;5.00;3.70;;;6.60;99.90;;;;;;5051506;28;20207;-73
2022/03/14 06:58:15;;;;;;;9.60;5.40;;;6.90;1.00;;;;;;5051561;28;20234;-75
2022/03/14 07:00:43;;;;;;;11.10;5.40;;;7.40;1.00;;;;;;5050858;28;20234;-74
2022/03/14 07:03:10;;;;;;;10.97;5.37;;;7.70;1.00;;;;;;5051377;28;20207;-76
2022/03/14 07:05:37;;;;;;;15.70;6.37;;;7.80;1.00;;;;;;5050921;28;20199;-75
2022/03/14 07:08:05;;;;;;;9.43;5.37;;;8.10;1.00;;;;;;5051077;28;20245;-75
2022/03/14 07:10:32;;;;;;;9.60;6.40;;;8.30;1.00;;;;;;5050692;28;20211;-76
2022/03/14 07:13:00;;;;;;;9.33;5.63;;;8.50;1.00;;;;;;5051227;28;20578;-75
2022/03/14 07:15:28;;;;;;;12.83;5.67;;;8.70;99.90;;;;;;5050712;28;20214;-76
2022/03/14 07:17:55;;;;;;;8.47;5.30;;;8.80;99.90;;;;;;5051103;28;20199;-74
2022/03/14 07:20:23;;;;;;;12.17;6.03;;;8.90;99.90;;;;;;5050513;28;20234;-74
2022/03/14 07:22:52;;;;;;;14.53;5.60;;;9.00;99.90;;;;;;5050723;28;20203;-73
2022/03/14 07:25:24;;;;;;;8.77;5.30;;;9.10;99.90;;;;;;5051153;28;20238;-76
2022/03/14 07:27:51;;;;;;;9.70;5.20;;;9.30;99.90;;;;;;5050865;28;20199;-74
2022/03/14 07:30:19;;;;;;;12.97;6.97;;;9.50;99.90;;;;;;5050610;28;20203;-73
2022/03/14 07:32:47;;;;;;;10.40;5.50;;;9.90;99.90;;;;;;5051113;28;20203;-72
2022/03/14 07:35:15;;;;;;;14.23;5.73;;;10.00;99.90;;;;;;5050659;28;20647;-75
2022/03/14 07:37:42;;;;;;;8.33;4.77;;;10.30;99.90;;;;;;5050043;28;20288;-79
2022/03/14 07:40:10;;;;;;;8.27;5.90;;;10.50;99.90;;;;;;5050733;28;20273;-74
2022/03/14 07:42:41;;;;;;;8.17;4.10;;;10.60;99.90;;;;;;5050210;28;20757;-75
2022/03/14 07:45:10;;;;;;;4.60;3.70;;;10.80;99.90;;;;;;5050539;28;20207;-77
2022/03/14 07:47:39;;;;;;;8.10;4.27;;;10.90;99.90;;;;;;5050197;28;20753;-75
2022/03/14 07:50:09;;;;;;;8.37;3.47;;;11.00;99.90;;;;;;5053596;28;20600;-82
2022/03/14 07:52:36;;;;;;;6.43;4.13;;;11.20;99.90;;;;;;5055133;28;20298;-75
2022/03/14 07:55:04;;;;;;;9.03;3.67;;;11.30;99.90;;;;;;5055777;28;20202;-83
2022/03/14 07:57:32;;;;;;;7.67;4.13;;;11.40;99.90;;;;;;5054623;28;20245;-84
2022/03/14 07:59:59;;;;;;;6.47;3.17;;;11.50;99.90;;;;;;5054460;28;20317;-80
2022/03/14 08:02:26;;;;;;;5.20;3.17;;;11.60;99.90;;;;;;5054092;28;20294;-74
2022/03/14 08:04:55;;;;;;;7.97;3.50;;;11.60;99.90;;;;;;5054801;28;20199;-75
2022/03/14 08:07:22;;;;;;;8.20;3.27;;;11.60;99.90;;;;;;5054106;28;20209;-78
2022/03/14 08:09:49;;;;;;;7.40;3.03;;;11.60;99.90;;;;;;5054301;28;20752;-75
2022/03/14 08:12:16;;;;;;;5.97;3.33;;;11.70;99.90;;;;;;5054624;28;20294;-79
2022/03/14 08:14:43;;;;;;;4.40;3.20;;;11.70;99.90;;;;;;5054242;28;20207;-72
2022/03/14 08:17:10;;;;;;;6.47;3.17;;;11.70;99.90;;;;;;5054333;28;20630;-75
2022/03/14 08:19:37;;;;;;;5.57;3.40;;;11.80;99.90;;;;;;5054068;28;20318;-72
2022/03/14 08:22:06;;;;;;;4.03;2.57;;;11.80;99.90;;;;;;5054642;28;20248;-74
2022/03/14 08:24:33;;;;;;;5.43;2.90;;;11.70;99.90;;;;;;5053882;28;20215;-82
2022/03/14 08:27:01;;;;;;;5.30;2.57;;;11.80;99.90;;;;;;5054356;28;20207;-79
2022/03/14 08:29:28;;;;;;;4.10;3.00;;;11.80;99.90;;;;;;5053609;28;20198;-79
2022/03/14 08:31:55;;;;;;;6.70;2.83;;;11.80;99.90;;;;;;5054267;28;20210;-74
2022/03/14 08:34:22;;;;;;;3.37;2.73;;;11.80;99.90;;;;;;5053518;28;20671;-72
2022/03/14 08:36:49;;;;;;;4.10;2.20;;;11.80;99.90;;;;;;5053943;28;20246;-74
2022/03/14 08:39:18;;;;;;;4.27;2.67;;;11.90;99.90;;;;;;5053962;28;20249;-75
2022/03/14 08:41:45;;;;;;;8.80;3.27;;;11.90;99.90;;;;;;5053596;28;20210;-74
2022/03/14 08:44:13;;;;;;;3.43;2.63;;;11.90;99.90;;;;;;5053609;28;20203;-73
2022/03/14 08:46:39;;;;;;;5.80;2.93;;;11.90;99.90;;;;;;5053218;28;20218;-76
2022/03/14 08:49:07;;;;;;;3.33;2.17;;;11.90;99.90;;;;;;5053559;28;20203;-74
2022/03/14 08:51:34;;;;;;;7.57;2.67;;;11.90;99.90;;;;;;5053244;28;20210;-73
2022/03/14 08:54:01;;;;;;;3.17;2.67;;;12.00;99.90;;;;;;5053452;28;20672;-72
2022/03/14 08:56:29;;;;;;;7.50;3.33;;;12.10;99.90;;;;;;5052829;28;20260;-74
2022/03/14 08:58:56;;;;;;;4.63;2.90;;;12.20;99.90;;;;;;5053269;28;20663;-73
2022/03/14 09:01:23;;;;;;;8.13;3.50;;;12.20;99.90;;;;;;5052466;28;20312;-73
2022/03/14 09:03:50;;;;;;;6.13;3.67;;;12.30;99.90;;;;;;5053452;28;20260;-73
2022/03/14 09:06:18;;;;;;;5.00;2.50;;;12.30;99.90;;;;;;5053610;28;20252;-76
2022/03/14 09:08:45;;;;;;;6.70;3.50;;;12.20;99.90;;;;;;5053505;28;20261;-73
2022/03/14 09:11:12;;;;;;;5.20;3.17;;;12.30;99.90;;;;;;5052654;28;20671;-73
2022/03/14 09:13:40;;;;;;;10.05;3.67;;;12.30;99.90;;;;;;5052797;28;20261;-75
2022/03/14 09:16:08;;;;;;;4.75;2.63;;;12.30;99.90;;;;;;5053150;28;20256;-75
2022/03/14 09:18:36;;;;;;;7.32;3.00;;;12.60;99.90;;;;;;5052761;28;20679;-74
2022/03/14 09:21:03;;;;;;;5.85;3.08;;;12.60;99.90;;;;;;5053376;28;20236;-77
2022/03/14 09:23:30;;;;;;;6.55;2.92;;;12.70;99.90;;;;;;5052473;28;20207;-78
2022/03/14 09:25:57;;;;;;;8.20;3.20;;;12.80;99.90;;;;;;5052973;28;20225;-74
2022/03/14 09:28:25;;;;;;;8.65;3.78;;;12.70;99.90;;;;;;5052637;28;20207;-76
2022/03/14 09:30:55;;;;;;;5.45;3.42;;;12.60;99.90;;;;;;5053166;28;20209;-74
2022/03/14 09:33:22;;;;;;;5.78;2.78;;;12.60;99.90;;;;;;5052543;28;20252;-76
2022/03/14 09:35:50;;;;;;;5.88;3.05;;;12.70;99.90;;;;;;5052876;28;20294;-76
2022/03/14 09:38:18;;;;;;;7.97;3.50;;;12.60;99.90;;;;;;5053001;28;20207;-74
2022/03/14 09:40:46;;;;;;;7.00;3.17;;;12.80;99.90;;;;;;5053054;28;20235;-75
2022/03/14 09:43:16;;;;;;;7.68;4.03;;;12.70;99.90;;;;;;5052997;28;20604;-78
2022/03/14 09:45:47;;;;;;;9.38;3.13;;;12.80;99.90;;;;;;5052698;28;20199;-76
2022/03/14 09:48:16;;;;;;;9.40;3.97;;;12.90;99.90;;;;;;5053021;28;20203;-76
2022/03/14 09:50:45;;;;;;;7.30;2.70;;;13.00;99.90;;;;;;5052661;28;20206;-74
2022/03/14 09:53:15;;;;;;;7.05;2.92;;;13.10;99.90;;;;;;5052590;28;20267;-74
2022/03/14 09:55:45;;;;;;;4.95;2.30;;;13.10;99.90;;;;;;5051932;28;20628;-74
2022/03/14 09:58:12;;;;;;;11.35;3.42;;;13.30;99.90;;;;;;5052093;28;20675;-78
2022/03/14 10:00:40;;;;;;;6.03;2.55;;;13.40;99.90;;;;;;5051911;28;20222;-73
2022/03/14 10:03:07;;;;;;;3.13;2.50;;;13.50;99.90;;;;;;5052188;28;20725;-75
2022/03/14 10:05:36;;;;;;;7.13;2.80;;;13.40;99.90;;;;;;5052203;28;20256;-76
2022/03/14 10:08:03;;;;;;;4.93;2.53;;;13.70;99.90;;;;;;5052326;28;20203;-72
2022/03/14 10:10:31;;;;;;;4.03;2.58;;;13.60;99.90;;;;;;5051749;28;20269;-75
2022/03/14 10:12:58;;;;;;;3.38;2.50;;;13.60;99.90;;;;;;5051095;28;20264;-76
2022/03/14 10:15:26;;;;;;;6.70;2.15;;;13.70;99.90;;;;;;5051756;28;20686;-77
2022/03/14 10:17:54;;;;;;;5.90;2.80;;;14.00;99.90;;;;;;5052127;28;20203;-77
2022/03/14 10:20:22;;;;;;;4.50;2.50;;;14.00;99.90;;;;;;5051514;28;20784;-74
2022/03/14 10:22:51;;;;;;;7.82;2.38;;;14.20;99.90;;;;;;5051741;28;20298;-74
2022/03/14 10:25:20;;;;;;;7.13;2.42;;;14.10;99.90;;;;;;5051955;28;20264;-74
2022/03/14 10:27:51;;;;;;;3.90;1.88;;;14.10;99.90;;;;;;5052194;28;20210;-73
2022/03/14 10:30:29;;;;;;;3.03;1.63;;;14.10;99.90;;;;;;5051962;28;20211;-73
2022/03/14 10:33:12;;;;;;;4.95;2.03;;;14.20;99.90;;;;;;5051729;28;20619;-73
2022/03/14 10:35:41;;;;;;;4.13;2.28;;;14.40;99.90;;;;;;5051053;28;20753;-74
2022/03/14 10:38:11;;;;;;;5.47;2.63;;;14.60;99.90;;;;;;5051326;28;20653;-73
2022/03/14 10:40:39;;;;;;;8.05;2.55;;;14.50;99.90;;;;;;5050987;28;20230;-73
2022/03/14 10:43:09;;;;;;;4.88;2.22;;;14.30;99.90;;;;;;5051628;28;20215;-73
2022/03/14 10:45:38;;;;;;;4.88;2.33;;;14.40;99.90;;;;;;5051067;28;20199;-71
2022/03/14 10:48:06;;;;;;;4.50;2.30;;;14.10;99.90;;;;;;5051349;28;20260;-72
2022/03/14 10:50:35;;;;;;;7.65;2.63;;;14.30;99.90;;;;;;5050963;28;20690;-73
2022/03/14 10:53:07;;;;;;;11.13;5.03;;;14.10;99.90;;;;;;5051098;28;20256;-77
2022/03/14 10:55:37;;;;;;;4.20;2.63;;;14.10;99.90;;;;;;5050832;28;20752;-74
2022/03/14 10:58:12;;;;;;;6.10;2.28;;;13.90;99.90;;;;;;5050995;28;20233;-74
2022/03/14 11:00:51;;;;;;;6.97;2.63;;;13.90;99.90;;;;;;5050870;28;20698;-72
2022/03/14 11:03:26;;;;;;;5.15;2.08;;;13.90;99.90;;;;;;5051383;28;20331;-76
2022/03/14 11:05:57;;;;;;;6.55;2.10;;;13.90;99.90;;;;;;5051036;28;20202;-74
2022/03/14 11:08:32;;;;;;;5.15;2.25;;;13.90;99.90;;;;;;5050540;28;20203;-73
2022/03/14 11:11:03;;;;;;;2.95;2.20;;;13.80;99.90;;;;;;5051091;28;20214;-73
2022/03/14 11:13:30;;;;;;;3.33;2.20;;;13.70;99.90;;;;;;5050610;28;20611;-74
2022/03/14 11:15:58;;;;;;;4.95;1.45;;;13.70;99.90;;;;;;5050970;28;20272;-73
2022/03/14 11:18:25;;;;;;;3.28;1.60;;;13.70;99.90;;;;;;5050557;28;20256;-72
2022/03/14 11:20:54;;;;;;;3.85;1.63;;;13.70;99.90;;;;;;5051144;28;20234;-74
2022/03/14 11:23:21;;;;;;;2.65;1.25;;;13.80;99.90;;;;;;5050419;28;20203;-76
2022/03/14 11:25:50;;;;;;;6.75;1.95;;;13.80;99.90;;;;;;5050983;28;20199;-77
2022/03/14 11:28:21;;;;;;;5.10;1.60;;;13.80;99.90;;;;;;5051207;28;20202;-76
2022/03/14 11:30:54;;;;;;;2.88;1.52;;;13.70;99.90;;;;;;5050783;28;20207;-75
2022/03/14 11:33:22;;;;;;;4.47;2.42;;;13.80;99.90;;;;;;5050323;28;20257;-78
2022/03/14 11:35:49;;;;;;;3.63;1.67;;;13.60;99.90;;;;;;5050655;28;20207;-79
2022/03/14 11:38:16;;;;;;;5.95;2.97;;;13.60;99.90;;;;;;5051175;28;20206;-72
2022/03/14 11:40:43;;;;;;;4.82;1.60;;;13.50;99.90;;;;;;5050660;28;20272;-75
2022/03/14 11:43:12;;;;;;;5.97;2.25;;;13.50;99.90;;;;;;5050647;28;20199;-72
2022/03/14 11:45:41;;;;;;;2.75;1.55;;;13.60;99.90;;;;;;5050444;28;20199;-74
2022/03/14 11:48:09;;;;;;;4.05;2.17;;;13.60;99.90;;;;;;5050627;28;20614;-75
2022/03/14 11:50:43;;;;;;;4.00;2.25;;;13.50;99.90;;;;;;5050037;28;20207;-74
2022/03/14 11:53:17;;;;;;;8.30;2.88;;;13.50;99.90;;;;;;5050685;28;20203;-72
2022/03/14 11:55:52;;;;;;;6.13;2.45;;;13.20;99.90;;;;;;5050625;28;20203;-72
2022/03/14 11:58:56;;;;;;;8.48;3.45;;;13.20;99.90;;;;;;5050525;28;20293;-72
2022/03/14 12:01:28;;;;;;;8.25;2.20;;;13.20;99.90;;;;;;5046621;28;20240;-76
2022/03/14 12:03:56;;;;;;;3.83;2.55;;;13.10;99.90;;;;;;5050449;28;20207;-73
2022/03/14 12:07:00;;;;;;;4.50;2.47;;;13.20;99.90;;;;;;5050024;28;20290;-74
2022/03/14 12:09:46;;;;;;;6.63;2.97;;;13.20;99.90;;;;;;5050100;28;20681;-73
2022/03/14 12:12:30;;;;;;;9.63;3.90;;;13.30;99.90;;;;;;5050471;28;20297;-73
2022/03/14 12:14:59;;;;;;;5.40;3.13;;;13.30;99.90;;;;;;5050460;28;20286;-74
2022/03/14 12:17:29;;;;;;;7.40;3.40;;;13.30;99.90;;;;;;5050180;28;20261;-73
2022/03/14 12:19:59;;;;;;;8.48;3.20;;;13.40;99.90;;;;;;5050246;28;20264;-75
2022/03/14 12:22:45;;;;;;;8.23;2.65;;;13.50;99.90;;;;;;5049640;28;20278;-73
2022/03/14 12:25:14;;;;;;;6.68;3.30;;;13.50;99.90;;;;;;5050278;28;20264;-72
2022/03/14 12:27:43;;;;;;;7.63;2.88;;;13.30;99.90;;;;;;5050071;28;20206;-73
2022/03/14 12:30:31;;;;;;;9.13;3.20;;;13.30;99.90;;;;;;5050159;28;20206;-73
2022/03/14 12:33:06;;;;;;;5.63;2.53;;;13.10;99.90;;;;;;5050330;28;20199;-72
2022/03/14 12:35:37;;;;;;;8.85;3.47;;;12.80;99.90;;;;;;5051251;28;20194;-74
2022/03/14 12:38:18;;;;;;;10.82;3.05;;;12.30;99.90;;;;;;5053903;28;20268;-74
2022/03/14 12:40:46;;;;;;;4.72;2.28;;;11.90;1.00;;;;;;5054031;28;20293;-74
2022/03/14 12:43:22;;;;;;;8.40;2.53;;;11.60;1.00;;;;;;5054161;28;20203;-72
2022/03/14 12:45:51;;;;;;;5.78;2.40;;;11.40;1.00;;;;;;5053664;28;20259;-73
2022/03/14 12:48:21;;;;;;;8.70;3.20;;;11.40;1.00;;;;;;5053888;28;20207;-72
2022/03/14 12:50:56;;;;;;;6.88;3.05;;;11.60;1.00;;;;;;5053688;28;20687;-74
2022/03/14 12:53:51;;;;;;;9.43;3.30;;;11.80;1.00;;;;;;5053204;28;20248;-73
2022/03/14 12:56:24;;;;;;;8.30;3.67;;;11.70;1.00;;;;;;5045542;28;20203;-74
2022/03/14 12:59:03;;;;;;;10.40;3.40;;;11.60;1.00;;;;;;5053608;28;20206;-74
2022/03/14 13:01:32;;;;;;;8.53;4.30;;;11.80;1.00;;;;;;5053042;28;20311;-74
2022/03/14 13:04:01;;;;;;;10.35;3.92;;;12.10;1.00;;;;;;5053252;28;20199;-73